sensor_id;sensor_type;location;lat;lon;timestamp;pressure;altitude;pressure_sealevel;temperature;humidity
50356;BME280;36264;51.296;-0.602;2023-04-28T00:00:27;100556.69;;;17.19;93.76
50356;BME280;36264;51.296;-0.602;2023-04-28T00:02:53;100558.00;;;17.12;94.00
50356;BME280;36264;51.296;-0.602;2023-04-28T00:05:18;100548.81;;;17.19;93.81
50356;BME280;36264;51.296;-0.602;2023-04-28T00:07:44;100542.81;;;17.17;93.59
50356;BME280;36264;51.296;-0.602;2023-04-28T00:10:10;100538.41;;;17.17;93.85
50356;BME280;36264;51.296;-0.602;2023-04-28T00:12:35;100546.19;;;17.19;93.58
50356;BME280;36264;51.296;-0.602;2023-04-28T00:15:01;100541.03;;;17.17;93.50
50356;BME280;36264;51.296;-0.602;2023-04-28T00:17:26;100533.91;;;17.19;93.36
50356;BME280;36264;51.296;-0.602;2023-04-28T00:19:52;100532.78;;;17.24;93.07
50356;BME280;36264;51.296;-0.602;2023-04-28T00:22:17;100535.00;;;17.30;92.88
50356;BME280;36264;51.296;-0.602;2023-04-28T00:24:43;100535.31;;;17.25;92.87
50356;BME280;36264;51.296;-0.602;2023-04-28T00:27:09;100530.25;;;17.22;93.17
50356;BME280;36264;51.296;-0.602;2023-04-28T00:29:34;100532.13;;;17.20;93.46
50356;BME280;36264;51.296;-0.602;2023-04-28T00:32:01;100525.94;;;17.21;93.28
50356;BME280;36264;51.296;-0.602;2023-04-28T00:34:26;100515.34;;;17.23;93.16
50356;BME280;36264;51.296;-0.602;2023-04-28T00:36:53;100526.50;;;17.26;93.14
50356;BME280;36264;51.296;-0.602;2023-04-28T00:39:18;100515.81;;;17.29;92.85
50356;BME280;36264;51.296;-0.602;2023-04-28T00:41:44;100517.28;;;17.33;92.48
50356;BME280;36264;51.296;-0.602;2023-04-28T00:44:09;100524.31;;;17.33;92.65
50356;BME280;36264;51.296;-0.602;2023-04-28T00:46:34;100523.50;;;17.32;92.63
50356;BME280;36264;51.296;-0.602;2023-04-28T00:49:00;100524.03;;;17.37;92.30
50356;BME280;36264;51.296;-0.602;2023-04-28T00:51:26;100514.84;;;17.30;92.45
50356;BME280;36264;51.296;-0.602;2023-04-28T00:53:55;100516.13;;;17.52;92.27
50356;BME280;36264;51.296;-0.602;2023-04-28T00:56:21;100523.31;;;17.35;92.43
50356;BME280;36264;51.296;-0.602;2023-04-28T00:58:46;100515.53;;;17.34;92.48
50356;BME280;36264;51.296;-0.602;2023-04-28T01:01:11;100518.97;;;17.34;92.63
50356;BME280;36264;51.296;-0.602;2023-04-28T01:03:38;100516.56;;;17.59;92.36
50356;BME280;36264;51.296;-0.602;2023-04-28T01:06:05;100512.66;;;17.51;92.26
50356;BME280;36264;51.296;-0.602;2023-04-28T01:08:31;100518.75;;;17.52;92.24
50356;BME280;36264;51.296;-0.602;2023-04-28T01:10:57;100514.75;;;17.46;92.01
50356;BME280;36264;51.296;-0.602;2023-04-28T01:13:22;100519.13;;;17.46;91.82
50356;BME280;36264;51.296;-0.602;2023-04-28T01:15:48;100516.75;;;17.55;91.64
50356;BME280;36264;51.296;-0.602;2023-04-28T01:18:15;100517.88;;;17.66;91.73
50356;BME280;36264;51.296;-0.602;2023-04-28T01:20:40;100516.97;;;17.52;91.76
50356;BME280;36264;51.296;-0.602;2023-04-28T01:23:13;100513.31;;;17.82;92.11
50356;BME280;36264;51.296;-0.602;2023-04-28T01:25:39;100514.34;;;17.52;92.56
50356;BME280;36264;51.296;-0.602;2023-04-28T01:28:05;100510.44;;;17.45;93.73
50356;BME280;36264;51.296;-0.602;2023-04-28T01:30:31;100515.78;;;17.44;93.52
50356;BME280;36264;51.296;-0.602;2023-04-28T01:32:56;100516.41;;;17.47;93.39
50356;BME280;36264;51.296;-0.602;2023-04-28T01:35:22;100517.16;;;17.49;93.33
50356;BME280;36264;51.296;-0.602;2023-04-28T01:37:48;100516.13;;;17.52;93.10
50356;BME280;36264;51.296;-0.602;2023-04-28T01:40:13;100512.66;;;17.51;93.03
50356;BME280;36264;51.296;-0.602;2023-04-28T01:42:38;100507.31;;;17.53;92.88
50356;BME280;36264;51.296;-0.602;2023-04-28T01:45:04;100516.56;;;17.59;92.85
50356;BME280;36264;51.296;-0.602;2023-04-28T01:47:30;100504.59;;;17.54;92.73
50356;BME280;36264;51.296;-0.602;2023-04-28T01:49:56;100519.28;;;17.57;92.86
50356;BME280;36264;51.296;-0.602;2023-04-28T01:52:21;100520.34;;;17.54;93.08
50356;BME280;36264;51.296;-0.602;2023-04-28T01:54:48;100520.34;;;17.54;93.31
50356;BME280;36264;51.296;-0.602;2023-04-28T01:57:14;100518.56;;;17.55;93.18
50356;BME280;36264;51.296;-0.602;2023-04-28T01:59:39;100518.47;;;17.56;93.12
50356;BME280;36264;51.296;-0.602;2023-04-28T02:02:05;100514.22;;;17.54;93.33
50356;BME280;36264;51.296;-0.602;2023-04-28T02:04:30;100517.16;;;17.49;93.98
50356;BME280;36264;51.296;-0.602;2023-04-28T02:06:56;100526.00;;;17.48;94.98
50356;BME280;36264;51.296;-0.602;2023-04-28T02:09:21;100523.16;;;17.51;94.39
50356;BME280;36264;51.296;-0.602;2023-04-28T02:11:47;100534.31;;;17.55;94.23
50356;BME280;36264;51.296;-0.602;2023-04-28T02:14:12;100530.75;;;17.56;94.54
50356;BME280;36264;51.296;-0.602;2023-04-28T02:16:38;100535.06;;;17.57;94.39
50356;BME280;36264;51.296;-0.602;2023-04-28T02:19:03;100527.06;;;17.59;94.34
50356;BME280;36264;51.296;-0.602;2023-04-28T02:21:28;100527.84;;;17.61;94.11
50356;BME280;36264;51.296;-0.602;2023-04-28T02:23:55;100525.03;;;17.64;94.61
50356;BME280;36264;51.296;-0.602;2023-04-28T02:26:20;100534.22;;;17.56;94.46
50356;BME280;36264;51.296;-0.602;2023-04-28T02:28:46;100527.06;;;17.59;95.84
50356;BME280;36264;51.296;-0.602;2023-04-28T02:31:13;100527.66;;;17.64;94.23
50356;BME280;36264;51.296;-0.602;2023-04-28T02:33:38;100522.69;;;17.59;94.69
50356;BME280;36264;51.296;-0.602;2023-04-28T02:36:04;100521.56;;;17.76;94.37
50356;BME280;36264;51.296;-0.602;2023-04-28T02:38:31;100523.38;;;17.75;93.96
50356;BME280;36264;51.296;-0.602;2023-04-28T02:41:01;100529.47;;;17.76;94.70
50356;BME280;36264;51.296;-0.602;2023-04-28T02:43:27;100529.03;;;17.69;95.27
50356;BME280;36264;51.296;-0.602;2023-04-28T02:45:53;100542.16;;;17.69;94.44
50356;BME280;36264;51.296;-0.602;2023-04-28T02:48:18;100545.09;;;17.50;95.33
50356;BME280;36264;51.296;-0.602;2023-04-28T02:50:44;100536.31;;;17.51;95.26
50356;BME280;36264;51.296;-0.602;2023-04-28T02:53:15;100535.09;;;17.70;95.43
50356;BME280;36264;51.296;-0.602;2023-04-28T02:55:40;100539.84;;;17.50;95.48
50356;BME280;36264;51.296;-0.602;2023-04-28T02:58:06;100538.06;;;17.51;95.21
50356;BME280;36264;51.296;-0.602;2023-04-28T03:00:31;100537.13;;;17.52;96.16
50356;BME280;36264;51.296;-0.602;2023-04-28T03:02:57;100544.19;;;17.51;95.40
50356;BME280;36264;51.296;-0.602;2023-04-28T03:05:22;100535.66;;;17.48;95.65
50356;BME280;36264;51.296;-0.602;2023-04-28T03:07:48;100544.75;;;17.42;95.97
50356;BME280;36264;51.296;-0.602;2023-04-28T03:10:13;100547.19;;;17.45;95.46
50356;BME280;36264;51.296;-0.602;2023-04-28T03:12:38;100546.25;;;17.46;95.13
50356;BME280;36264;51.296;-0.602;2023-04-28T03:15:04;100540.53;;;17.39;96.13
50356;BME280;36264;51.296;-0.602;2023-04-28T03:17:32;100540.44;;;17.41;95.35
50356;BME280;36264;51.296;-0.602;2023-04-28T03:19:58;100547.63;;;17.52;94.85
50356;BME280;36264;51.296;-0.602;2023-04-28T03:22:23;100547.72;;;17.50;94.33
50356;BME280;36264;51.296;-0.602;2023-04-28T03:24:48;100546.16;;;17.48;94.31
50356;BME280;36264;51.296;-0.602;2023-04-28T03:27:14;100543.41;;;17.49;94.53
50356;BME280;36264;51.296;-0.602;2023-04-28T03:29:39;100543.97;;;17.54;94.02
50356;BME280;36264;51.296;-0.602;2023-04-28T03:32:05;100539.75;;;17.52;94.38
50356;BME280;36264;51.296;-0.602;2023-04-28T03:34:30;100535.94;;;17.43;94.40
50356;BME280;36264;51.296;-0.602;2023-04-28T03:36:56;100536.59;;;17.47;94.35
50356;BME280;36264;51.296;-0.602;2023-04-28T03:39:21;100539.84;;;17.50;93.80
50356;BME280;36264;51.296;-0.602;2023-04-28T03:41:46;100527.47;;;17.52;94.15
50356;BME280;36264;51.296;-0.602;2023-04-28T03:44:12;100530.94;;;17.53;93.28
50356;BME280;36264;51.296;-0.602;2023-04-28T03:46:37;100540.59;;;17.52;93.13
50356;BME280;36264;51.296;-0.602;2023-04-28T03:49:04;100546.81;;;17.51;93.20
50356;BME280;36264;51.296;-0.602;2023-04-28T03:51:30;100533.38;;;17.56;93.04
50356;BME280;36264;51.296;-0.602;2023-04-28T03:53:57;100544.72;;;17.56;92.84
50356;BME280;36264;51.296;-0.602;2023-04-28T03:56:22;100547.34;;;17.56;92.97
50356;BME280;36264;51.296;-0.602;2023-04-28T03:58:48;100538.63;;;17.56;92.69
50356;BME280;36264;51.296;-0.602;2023-04-28T04:01:13;100554.19;;;17.59;92.55
50356;BME280;36264;51.296;-0.602;2023-04-28T04:03:38;100558.38;;;17.62;92.65
50356;BME280;36264;51.296;-0.602;2023-04-28T04:06:04;100543.84;;;17.70;92.59
50356;BME280;36264;51.296;-0.602;2023-04-28T04:08:30;100556.06;;;17.57;92.46
50356;BME280;36264;51.296;-0.602;2023-04-28T04:10:57;100556.16;;;17.55;92.48
50356;BME280;36264;51.296;-0.602;2023-04-28T04:13:22;100563.09;;;17.56;92.43
50356;BME280;36264;51.296;-0.602;2023-04-28T04:15:47;100558.38;;;17.62;92.36
50356;BME280;36264;51.296;-0.602;2023-04-28T04:18:14;100547.53;;;17.53;92.78
50356;BME280;36264;51.296;-0.602;2023-04-28T04:20:39;100557.13;;;17.54;92.50
50356;BME280;36264;51.296;-0.602;2023-04-28T04:23:05;100555.03;;;17.60;92.38
50356;BME280;36264;51.296;-0.602;2023-04-28T04:25:30;100558.13;;;17.52;92.57
50356;BME280;36264;51.296;-0.602;2023-04-28T04:27:57;100562.91;;;17.60;92.53
50356;BME280;36264;51.296;-0.602;2023-04-28T04:30:22;100562.63;;;17.64;92.18
50356;BME280;36264;51.296;-0.602;2023-04-28T04:32:48;100569.19;;;17.57;92.40
50356;BME280;36264;51.296;-0.602;2023-04-28T04:35:13;100567.44;;;17.58;92.56
50356;BME280;36264;51.296;-0.602;2023-04-28T04:37:39;100572.38;;;17.62;92.16
50356;BME280;36264;51.296;-0.602;2023-04-28T04:40:05;100567.94;;;17.77;91.83
50356;BME280;36264;51.296;-0.602;2023-04-28T04:42:30;100580.06;;;17.65;91.76
50356;BME280;36264;51.296;-0.602;2023-04-28T04:44:56;100572.28;;;17.64;91.71
50356;BME280;36264;51.296;-0.602;2023-04-28T04:47:21;100576.47;;;17.66;91.82
50356;BME280;36264;51.296;-0.602;2023-04-28T04:49:47;100578.63;;;17.88;91.46
50356;BME280;36264;51.296;-0.602;2023-04-28T04:52:14;100582.19;;;17.73;91.43
50356;BME280;36264;51.296;-0.602;2023-04-28T04:54:39;100586.06;;;17.67;91.79
50356;BME280;36264;51.296;-0.602;2023-04-28T04:57:05;100586.44;;;17.61;92.49
50356;BME280;36264;51.296;-0.602;2023-04-28T04:59:31;100592.53;;;17.62;92.63
50356;BME280;36264;51.296;-0.602;2023-04-28T05:01:57;100590.88;;;17.61;92.61
50356;BME280;36264;51.296;-0.602;2023-04-28T05:04:22;100587.94;;;17.51;93.50
50356;BME280;36264;51.296;-0.602;2023-04-28T05:06:47;100590.09;;;17.59;92.86
50356;BME280;36264;51.296;-0.602;2023-04-28T05:09:13;100588.34;;;17.59;92.85
50356;BME280;36264;51.296;-0.602;2023-04-28T05:11:38;100596.84;;;17.63;92.73
50356;BME280;36264;51.296;-0.602;2023-04-28T05:14:03;100594.59;;;17.71;92.42
50356;BME280;36264;51.296;-0.602;2023-04-28T05:16:29;100593.94;;;17.67;92.36
50356;BME280;36264;51.296;-0.602;2023-04-28T05:18:55;100596.84;;;17.63;92.78
50356;BME280;36264;51.296;-0.602;2023-04-28T05:21:20;100598.75;;;17.61;93.27
50356;BME280;36264;51.296;-0.602;2023-04-28T05:23:46;100597.78;;;17.62;93.13
50356;BME280;36264;51.296;-0.602;2023-04-28T05:26:11;100598.56;;;17.64;92.99
50356;BME280;36264;51.296;-0.602;2023-04-28T05:28:38;100588.19;;;17.89;92.69
50356;BME280;36264;51.296;-0.602;2023-04-28T05:31:04;100607.25;;;17.64;93.25
50356;BME280;36264;51.296;-0.602;2023-04-28T05:33:30;100618.78;;;17.62;93.26
50356;BME280;36264;51.296;-0.602;2023-04-28T05:35:55;100615.16;;;17.64;93.22
50356;BME280;36264;51.296;-0.602;2023-04-28T05:38:21;100616.06;;;17.63;93.56
50356;BME280;36264;51.296;-0.602;2023-04-28T05:40:46;100621.22;;;17.65;93.55
50356;BME280;36264;51.296;-0.602;2023-04-28T05:43:11;100622.00;;;17.67;93.53
50356;BME280;36264;51.296;-0.602;2023-04-28T05:45:37;100620.03;;;17.70;93.49
50356;BME280;36264;51.296;-0.602;2023-04-28T05:48:02;100621.59;;;17.73;93.67
50356;BME280;36264;51.296;-0.602;2023-04-28T05:50:29;100624.31;;;17.71;93.46
50356;BME280;36264;51.296;-0.602;2023-04-28T05:52:54;100620.94;;;17.69;93.63
50356;BME280;36264;51.296;-0.602;2023-04-28T05:55:20;100626.47;;;17.79;93.50
50356;BME280;36264;51.296;-0.602;2023-04-28T05:57:46;100628.25;;;17.79;93.51
50356;BME280;36264;51.296;-0.602;2023-04-28T06:00:12;100631.91;;;17.90;93.50
50356;BME280;36264;51.296;-0.602;2023-04-28T06:02:37;100640.38;;;17.81;93.40
50356;BME280;36264;51.296;-0.602;2023-04-28T06:05:03;100641.84;;;17.85;93.68
50356;BME280;36264;51.296;-0.602;2023-04-28T06:07:28;100641.28;;;17.80;94.08
50356;BME280;36264;51.296;-0.602;2023-04-28T06:09:54;100649.38;;;17.77;94.54
50356;BME280;36264;51.296;-0.602;2023-04-28T06:12:19;100646.53;;;17.80;94.24
50356;BME280;36264;51.296;-0.602;2023-04-28T06:14:44;100652.34;;;17.85;94.15
50356;BME280;36264;51.296;-0.602;2023-04-28T06:17:10;100649.56;;;17.88;93.99
50356;BME280;36264;51.296;-0.602;2023-04-28T06:19:35;100657.25;;;17.91;93.92
50356;BME280;36264;51.296;-0.602;2023-04-28T06:22:01;100656.31;;;17.92;93.99
50356;BME280;36264;51.296;-0.602;2023-04-28T06:24:26;100652.91;;;17.90;94.03
50356;BME280;36264;51.296;-0.602;2023-04-28T06:26:51;100659.78;;;17.93;94.08
50356;BME280;36264;51.296;-0.602;2023-04-28T06:29:17;100661.56;;;17.92;94.16
50356;BME280;36264;51.296;-0.602;2023-04-28T06:31:44;100658.09;;;17.92;94.42
50356;BME280;36264;51.296;-0.602;2023-04-28T06:34:10;100671.69;;;17.99;94.14
50356;BME280;36264;51.296;-0.602;2023-04-28T06:36:35;100664.00;;;17.96;94.04
50356;BME280;36264;51.296;-0.602;2023-04-28T06:39:00;100672.72;;;17.96;94.79
50356;BME280;36264;51.296;-0.602;2023-04-28T06:41:26;100672.53;;;17.99;94.75
50356;BME280;36264;51.296;-0.602;2023-04-28T06:43:53;100677.78;;;17.99;95.28
50356;BME280;36264;51.296;-0.602;2023-04-28T06:46:19;100683.03;;;17.99;95.01
50356;BME280;36264;51.296;-0.602;2023-04-28T06:48:44;100681.16;;;18.01;94.66
50356;BME280;36264;51.296;-0.602;2023-04-28T06:51:09;100686.22;;;18.04;94.89
50356;BME280;36264;51.296;-0.602;2023-04-28T06:53:35;100685.19;;;18.07;94.86
50356;BME280;36264;51.296;-0.602;2023-04-28T06:56:01;100687.19;;;18.03;96.02
50356;BME280;36264;51.296;-0.602;2023-04-28T06:58:27;100689.38;;;18.24;94.64
50356;BME280;36264;51.296;-0.602;2023-04-28T07:00:52;100696.31;;;18.25;95.46
50356;BME280;36264;51.296;-0.602;2023-04-28T07:03:18;100691.00;;;18.12;95.34
50356;BME280;36264;51.296;-0.602;2023-04-28T07:05:43;100693.91;;;18.07;97.58
50356;BME280;36264;51.296;-0.602;2023-04-28T07:08:09;100695.03;;;18.18;95.71
50356;BME280;36264;51.296;-0.602;2023-04-28T07:10:34;100697.56;;;18.19;96.19
50356;BME280;36264;51.296;-0.602;2023-04-28T07:13:00;100694.16;;;18.17;97.29
50356;BME280;36264;51.296;-0.602;2023-04-28T07:15:26;100698.84;;;18.26;95.82
50356;BME280;36264;51.296;-0.602;2023-04-28T07:17:52;100704.47;;;18.20;96.03
50356;BME280;36264;51.296;-0.602;2023-04-28T07:20:17;100704.63;;;18.32;95.68
50356;BME280;36264;51.296;-0.602;2023-04-28T07:22:43;100710.50;;;18.22;96.56
50356;BME280;36264;51.296;-0.602;2023-04-28T07:25:08;100712.38;;;18.20;95.97
50356;BME280;36264;51.296;-0.602;2023-04-28T07:27:34;100713.97;;;18.23;96.12
50356;BME280;36264;51.296;-0.602;2023-04-28T07:29:59;100723.75;;;18.21;97.02
50356;BME280;36264;51.296;-0.602;2023-04-28T07:32:25;100712.19;;;18.23;96.12
50356;BME280;36264;51.296;-0.602;2023-04-28T07:34:50;100721.56;;;18.27;96.16
50356;BME280;36264;51.296;-0.602;2023-04-28T07:37:16;100718.75;;;18.31;96.96
50356;BME280;36264;51.296;-0.602;2023-04-28T07:39:42;100714.97;;;18.35;96.48
50356;BME280;36264;51.296;-0.602;2023-04-28T07:42:08;100720.41;;;18.32;96.32
50356;BME280;36264;51.296;-0.602;2023-04-28T07:44:33;100726.59;;;18.45;95.34
50356;BME280;36264;51.296;-0.602;2023-04-28T07:46:59;100723.25;;;18.56;94.87
50356;BME280;36264;51.296;-0.602;2023-04-28T07:49:27;100731.72;;;18.74;95.91
50356;BME280;36264;51.296;-0.602;2023-04-28T07:51:52;100732.09;;;18.55;96.23
50356;BME280;36264;51.296;-0.602;2023-04-28T07:54:19;100738.13;;;18.70;95.81
50356;BME280;36264;51.296;-0.602;2023-04-28T07:56:44;100733.81;;;18.69;95.89
50356;BME280;36264;51.296;-0.602;2023-04-28T07:59:10;100736.78;;;18.77;95.00
50356;BME280;36264;51.296;-0.602;2023-04-28T08:01:36;100737.41;;;18.68;96.44
50356;BME280;36264;51.296;-0.602;2023-04-28T08:04:01;100739.22;;;18.80;96.08
50356;BME280;36264;51.296;-0.602;2023-04-28T08:06:26;100743.25;;;18.86;95.55
50356;BME280;36264;51.296;-0.602;2023-04-28T08:08:52;100745.13;;;18.83;95.29
50356;BME280;36264;51.296;-0.602;2023-04-28T08:11:17;100754.66;;;18.86;95.27
50356;BME280;36264;51.296;-0.602;2023-04-28T08:13:42;100757.06;;;18.89;95.18
50356;BME280;36264;51.296;-0.602;2023-04-28T08:16:08;100763.28;;;18.88;95.54
50356;BME280;36264;51.296;-0.602;2023-04-28T08:18:33;100755.06;;;18.93;95.02
50356;BME280;36264;51.296;-0.602;2023-04-28T08:20:59;100754.47;;;19.02;94.77
50356;BME280;36264;51.296;-0.602;2023-04-28T08:23:24;100752.47;;;19.06;94.52
50356;BME280;36264;51.296;-0.602;2023-04-28T08:25:53;100753.50;;;19.03;94.83
50356;BME280;36264;51.296;-0.602;2023-04-28T08:28:18;100752.97;;;18.98;94.77
50356;BME280;36264;51.296;-0.602;2023-04-28T08:30:43;100767.34;;;19.07;95.13
50356;BME280;36264;51.296;-0.602;2023-04-28T08:33:09;100744.88;;;19.01;95.11
50356;BME280;36264;51.296;-0.602;2023-04-28T08:35:34;100761.56;;;19.14;94.88
50356;BME280;36264;51.296;-0.602;2023-04-28T08:37:59;100762.72;;;19.23;94.69
50356;BME280;36264;51.296;-0.602;2023-04-28T08:40:25;100776.09;;;19.20;94.94
50356;BME280;36264;51.296;-0.602;2023-04-28T08:42:51;100782.53;;;19.16;94.61
50356;BME280;36264;51.296;-0.602;2023-04-28T08:45:16;100782.25;;;19.06;94.15
50356;BME280;36264;51.296;-0.602;2023-04-28T08:47:42;100773.63;;;19.04;95.03
50356;BME280;36264;51.296;-0.602;2023-04-28T08:50:11;100780.19;;;19.11;95.30
50356;BME280;36264;51.296;-0.602;2023-04-28T08:52:37;100785.63;;;18.81;96.54
50356;BME280;36264;51.296;-0.602;2023-04-28T08:55:08;100782.19;;;19.21;95.47
50356;BME280;36264;51.296;-0.602;2023-04-28T08:57:34;100779.59;;;19.46;94.04
50356;BME280;36264;51.296;-0.602;2023-04-28T09:00:02;100790.44;;;18.89;94.72
50356;BME280;36264;51.296;-0.602;2023-04-28T09:02:28;100796.34;;;18.92;94.61
50356;BME280;36264;51.296;-0.602;2023-04-28T09:04:53;100797.00;;;18.81;95.14
50356;BME280;36264;51.296;-0.602;2023-04-28T09:07:19;100794.28;;;18.83;94.92
50356;BME280;36264;51.296;-0.602;2023-04-28T09:09:44;100802.03;;;18.72;95.86
50356;BME280;36264;51.296;-0.602;2023-04-28T09:12:10;100809.00;;;18.58;96.45
50356;BME280;36264;51.296;-0.602;2023-04-28T09:14:36;100820.56;;;18.97;95.37
50356;BME280;36264;51.296;-0.602;2023-04-28T09:17:09;100810.59;;;19.03;94.92
50356;BME280;36264;51.296;-0.602;2023-04-28T09:19:36;100825.09;;;18.95;95.24
50356;BME280;36264;51.296;-0.602;2023-04-28T09:22:03;100820.78;;;18.94;95.00
50356;BME280;36264;51.296;-0.602;2023-04-28T09:24:37;100814.22;;;19.14;94.86
50356;BME280;36264;51.296;-0.602;2023-04-28T09:27:08;100815.44;;;19.09;94.56
50356;BME280;36264;51.296;-0.602;2023-04-28T09:29:36;100815.28;;;19.25;94.09
50356;BME280;36264;51.296;-0.602;2023-04-28T09:32:18;100809.94;;;19.65;93.89
50356;BME280;36264;51.296;-0.602;2023-04-28T09:34:45;100809.22;;;19.50;93.51
50356;BME280;36264;51.296;-0.602;2023-04-28T09:37:22;100818.84;;;19.77;93.91
50356;BME280;36264;51.296;-0.602;2023-04-28T09:39:52;100819.13;;;19.72;93.49
50356;BME280;36264;51.296;-0.602;2023-04-28T09:44:59;100828.47;;;19.37;92.85
50356;BME280;36264;51.296;-0.602;2023-04-28T09:47:26;100819.94;;;19.34;92.69
50356;BME280;36264;51.296;-0.602;2023-04-28T09:49:56;100824.09;;;19.51;91.94
50356;BME280;36264;51.296;-0.602;2023-04-28T09:52:22;100826.72;;;19.51;91.82
50356;BME280;36264;51.296;-0.602;2023-04-28T09:54:49;100829.19;;;19.27;91.13
50356;BME280;36264;51.296;-0.602;2023-04-28T09:57:16;100812.25;;;19.31;91.34
50356;BME280;36264;51.296;-0.602;2023-04-28T09:59:46;100829.97;;;19.54;90.67
50356;BME280;36264;51.296;-0.602;2023-04-28T10:02:14;100829.03;;;19.55;91.09
50356;BME280;36264;51.296;-0.602;2023-04-28T10:04:44;100839.13;;;19.62;91.33
50356;BME280;36264;51.296;-0.602;2023-04-28T10:07:16;100837.69;;;19.70;90.75
50356;BME280;36264;51.296;-0.602;2023-04-28T10:09:49;100850.44;;;19.64;90.23
50356;BME280;36264;51.296;-0.602;2023-04-28T10:12:19;100848.63;;;19.51;90.58
50356;BME280;36264;51.296;-0.602;2023-04-28T10:14:45;100848.47;;;19.27;93.27
50356;BME280;36264;51.296;-0.602;2023-04-28T10:17:15;100844.66;;;19.71;91.93
50356;BME280;36264;51.296;-0.602;2023-04-28T10:19:43;100847.09;;;19.75;91.46
50356;BME280;36264;51.296;-0.602;2023-04-28T10:27:37;100862.16;;;19.98;90.64
50356;BME280;36264;51.296;-0.602;2023-04-28T10:32:39;100868.31;;;19.86;89.16
50356;BME280;36264;51.296;-0.602;2023-04-28T10:38:14;100871.13;;;20.34;87.76
50356;BME280;36264;51.296;-0.602;2023-04-28T10:40:40;100883.69;;;20.18;88.80
50356;BME280;36264;51.296;-0.602;2023-04-28T10:43:08;100880.84;;;20.08;87.32
50356;BME280;36264;51.296;-0.602;2023-04-28T10:48:21;100892.13;;;20.10;85.45
50356;BME280;36264;51.296;-0.602;2023-04-28T10:56:19;100895.38;;;20.26;86.06
50356;BME280;36264;51.296;-0.602;2023-04-28T10:58:49;100900.78;;;20.12;84.95
50356;BME280;36264;51.296;-0.602;2023-04-28T11:06:31;100888.94;;;20.43;85.36
50356;BME280;36264;51.296;-0.602;2023-04-28T11:09:00;100907.22;;;20.21;85.71
50356;BME280;36264;51.296;-0.602;2023-04-28T11:11:27;100903.19;;;20.15;85.21
50356;BME280;36264;51.296;-0.602;2023-04-28T11:13:54;100896.03;;;20.04;83.88
50356;BME280;36264;51.296;-0.602;2023-04-28T11:19:30;100893.88;;;20.61;83.69
50356;BME280;36264;51.296;-0.602;2023-04-28T11:21:57;100897.44;;;20.60;84.02
50356;BME280;36264;51.296;-0.602;2023-04-28T11:24:24;100902.84;;;20.58;83.69
50356;BME280;36264;51.296;-0.602;2023-04-28T11:26:53;100900.44;;;20.42;83.00
50356;BME280;36264;51.296;-0.602;2023-04-28T11:29:36;100900.50;;;20.79;81.05
50356;BME280;36264;51.296;-0.602;2023-04-28T11:32:03;100904.13;;;20.53;82.10
50356;BME280;36264;51.296;-0.602;2023-04-28T11:34:29;100908.56;;;20.39;82.47
50356;BME280;36264;51.296;-0.602;2023-04-28T11:36:54;100909.53;;;20.25;81.12
50356;BME280;36264;51.296;-0.602;2023-04-28T11:39:31;100906.88;;;20.51;79.45
50356;BME280;36264;51.296;-0.602;2023-04-28T11:41:57;100912.81;;;20.16;79.98
50356;BME280;36264;51.296;-0.602;2023-04-28T11:44:28;100915.84;;;20.49;81.07
50356;BME280;36264;51.296;-0.602;2023-04-28T11:46:56;100922.28;;;20.44;80.86
50356;BME280;36264;51.296;-0.602;2023-04-28T11:51:54;100912.97;;;20.52;81.18
50356;BME280;36264;51.296;-0.602;2023-04-28T11:54:24;100915.31;;;20.56;81.05
50356;BME280;36264;51.296;-0.602;2023-04-28T11:56:51;100917.84;;;20.58;80.67
50356;BME280;36264;51.296;-0.602;2023-04-28T11:59:17;100919.34;;;20.49;80.06
50356;BME280;36264;51.296;-0.602;2023-04-28T12:01:53;100921.66;;;20.67;77.54
50356;BME280;36264;51.296;-0.602;2023-04-28T12:04:34;100918.13;;;20.79;77.19
50356;BME280;36264;51.296;-0.602;2023-04-28T12:12:28;100933.56;;;21.09;78.73
50356;BME280;36264;51.296;-0.602;2023-04-28T12:17:26;100937.53;;;20.91;77.57
50356;BME280;36264;51.296;-0.602;2023-04-28T12:19:53;100939.31;;;20.90;78.63
50356;BME280;36264;51.296;-0.602;2023-04-28T12:22:18;100944.31;;;20.56;75.63
50356;BME280;36264;51.296;-0.602;2023-04-28T12:24:43;100953.09;;;20.44;76.11
50356;BME280;36264;51.296;-0.602;2023-04-28T12:27:14;100945.84;;;20.97;77.10
50356;BME280;36264;51.296;-0.602;2023-04-28T12:29:42;100950.34;;;20.84;76.61
50356;BME280;36264;51.296;-0.602;2023-04-28T12:32:09;100950.84;;;20.89;76.39
50356;BME280;36264;51.296;-0.602;2023-04-28T12:34:36;100957.28;;;20.85;77.00
50356;BME280;36264;51.296;-0.602;2023-04-28T12:37:02;100952.50;;;21.03;76.81
50356;BME280;36264;51.296;-0.602;2023-04-28T12:39:30;100952.63;;;21.02;76.92
50356;BME280;36264;51.296;-0.602;2023-04-28T12:41:56;100950.69;;;21.04;76.90
50356;BME280;36264;51.296;-0.602;2023-04-28T12:44:23;100950.16;;;21.11;76.18
50356;BME280;36264;51.296;-0.602;2023-04-28T12:46:50;100950.88;;;21.38;76.30
50356;BME280;36264;51.296;-0.602;2023-04-28T12:49:15;100953.25;;;21.29;76.27
50356;BME280;36264;51.296;-0.602;2023-04-28T12:51:41;100957.13;;;21.37;75.75
50356;BME280;36264;51.296;-0.602;2023-04-28T12:54:06;100958.63;;;21.28;75.43
50356;BME280;36264;51.296;-0.602;2023-04-28T12:56:32;100966.66;;;21.26;75.82
50356;BME280;36264;51.296;-0.602;2023-04-28T12:58:58;100957.25;;;21.35;76.02
50356;BME280;36264;51.296;-0.602;2023-04-28T13:01:27;100970.25;;;21.25;76.71
50356;BME280;36264;51.296;-0.602;2023-04-28T13:03:53;100976.53;;;21.24;76.44
50356;BME280;36264;51.296;-0.602;2023-04-28T13:06:19;100965.44;;;21.19;76.31
50356;BME280;36264;51.296;-0.602;2023-04-28T13:08:44;100978.06;;;21.27;75.28
50356;BME280;36264;51.296;-0.602;2023-04-28T13:11:10;100990.81;;;21.09;75.00
50356;BME280;36264;51.296;-0.602;2023-04-28T13:13:35;100982.56;;;21.13;75.04
50356;BME280;36264;51.296;-0.602;2023-04-28T13:16:01;100986.16;;;21.12;74.83